Time;durP1;ratioP1;P1;durP2;ratioP2;P2;SDS_P1;SDS_P2;PMS_P1;PMS_P2;Temp;Humidity;BMP_temperature;BMP_pressure;BME280_temperature;BME280_humidity;BME280_pressure;Samples;Min_cycle;Max_cycle;Signal;HPM_P1;HPM_P2
2023/07/23 00:01:39;;;;;;;6.30;5.40;;;20.30;77.00;;;;;;5034518;28;20460;-47
2023/07/23 00:04:05;;;;;;;9.40;6.57;;;20.20;77.00;;;;;;5033008;28;20465;-46
2023/07/23 00:06:34;;;;;;;7.00;6.23;;;20.20;76.80;;;;;;5034360;28;20432;-47
2023/07/23 00:09:01;;;;;;;8.00;6.43;;;;;;;;;;5034299;28;20452;-47
2023/07/23 00:11:27;;;;;;;7.10;5.70;;;20.20;76.90;;;;;;5035766;28;20432;-46
2023/07/23 00:13:55;;;;;;;6.40;5.63;;;;;;;;;;5035224;28;20768;-46
2023/07/23 00:16:22;;;;;;;5.67;5.17;;;;;;;;;;5034111;28;20521;-46
2023/07/23 00:18:49;;;;;;;6.13;5.53;;;20.20;76.60;;;;;;5033968;28;20451;-46
2023/07/23 00:21:16;;;;;;;6.30;5.20;;;;;;;;;;5033860;28;20521;-46
2023/07/23 00:23:44;;;;;;;5.90;5.27;;;20.20;76.40;;;;;;5033832;28;20417;-46
2023/07/23 00:26:11;;;;;;;6.87;5.57;;;;;;;;;;5033867;28;20455;-46
2023/07/23 00:28:38;;;;;;;7.63;5.80;;;20.20;76.30;;;;;;5033199;28;20971;-45
2023/07/23 00:31:05;;;;;;;13.50;6.20;;;;;;;;;;5033704;28;20803;-46
2023/07/23 00:33:32;;;;;;;6.77;6.07;;;20.20;76.30;;;;;;5032404;28;20452;-47
2023/07/23 00:35:58;;;;;;;5.30;4.80;;;20.20;76.30;;;;;;5033576;28;20483;-47
2023/07/23 00:38:25;;;;;;;6.83;5.83;;;;;;;;;;5031727;28;20479;-46
2023/07/23 00:40:56;;;;;;;7.03;5.80;;;;;;;;;;5033654;28;20444;-46
2023/07/23 00:43:23;;;;;;;5.97;5.23;;;;;;;;;;5032307;28;20969;-46
2023/07/23 00:45:51;;;;;;;7.33;6.60;;;;;;;;;;5032266;28;20455;-46
2023/07/23 00:48:18;;;;;;;7.00;5.73;;;;;;;;;;5032863;28;20786;-46
2023/07/23 00:50:45;;;;;;;6.00;5.47;;;;;;;;;;5031919;28;20455;-46
2023/07/23 00:53:12;;;;;;;7.03;6.33;;;;;;;;;;5031919;28;20444;-47
2023/07/23 00:55:39;;;;;;;6.10;5.17;;;;;;;;;;5033300;28;20472;-45
2023/07/23 00:58:07;;;;;;;8.03;5.63;;;;;;;;;;5033160;28;20455;-46
2023/07/23 01:00:35;;;;;;;7.50;5.77;;;;;;;;;;5032196;28;20949;-46
2023/07/23 01:03:02;;;;;;;6.67;6.07;;;;;;;;;;5032109;28;20505;-47
2023/07/23 01:05:29;;;;;;;6.80;6.10;;;;;;;;;;5031191;28;20426;-46
2023/07/23 01:07:56;;;;;;;6.40;5.20;;;;;;;;;;5031768;28;20522;-47
2023/07/23 01:10:23;;;;;;;8.00;5.63;;;;;;;;;;5032670;28;20791;-47
2023/07/23 01:12:51;;;;;;;6.63;6.03;;;;;;;;;;5032950;28;20442;-46
2023/07/23 01:15:19;;;;;;;6.70;5.70;;;;;;;;;;5033160;28;20872;-46
2023/07/23 01:17:47;;;;;;;7.40;5.53;;;;;;;;;;5031469;28;20471;-47
2023/07/23 01:20:15;;;;;;;7.40;5.17;;;;;;;;;;5031408;28;20463;-47
2023/07/23 01:22:43;;;;;;;5.57;4.80;;;20.00;76.90;;;;;;5031616;28;20546;-47
2023/07/23 01:25:10;;;;;;;7.83;5.43;;;;;;;;;;5032863;28;20769;-47
2023/07/23 01:27:37;;;;;;;6.00;5.23;;;;;;;;;;5031465;28;20472;-45
2023/07/23 01:30:04;;;;;;;6.23;5.30;;;;;;;;;;5033050;28;20439;-46
2023/07/23 01:32:31;;;;;;;7.40;5.47;;;;;;;;;;5031597;28;20451;-47
2023/07/23 01:34:59;;;;;;;7.23;5.10;;;;;;;;;;5033127;28;20421;-47
2023/07/23 01:37:26;;;;;;;8.13;5.93;;;;;;;;;;5032213;28;20489;-46
2023/07/23 01:39:54;;;;;;;7.80;5.97;;;20.00;77.70;;;;;;5031974;28;20506;-46
2023/07/23 01:42:21;;;;;;;7.10;5.80;;;;;;;;;;5032524;28;20440;-46
2023/07/23 01:44:48;;;;;;;6.60;5.10;;;;;;;;;;5031113;28;20439;-47
2023/07/23 01:47:15;;;;;;;6.83;5.73;;;;;;;;;;5032495;28;20423;-46
2023/07/23 01:49:42;;;;;;;6.90;5.80;;;;;;;;;;5032017;28;20515;-45
2023/07/23 01:52:09;;;;;;;6.70;5.90;;;;;;;;;;5032183;28;20442;-46
2023/07/23 01:54:36;;;;;;;6.80;6.10;;;;;;;;;;5032143;28;20442;-45
2023/07/23 01:57:04;;;;;;;7.63;6.07;;;19.90;81.70;;;;;;5030812;28;20972;-46
2023/07/23 01:59:31;;;;;;;8.40;5.90;;;;;;;;;;5030424;28;20894;-47
2023/07/23 02:01:58;;;;;;;8.27;6.40;;;19.80;84.40;;;;;;5030825;28;20443;-48
2023/07/23 02:04:25;;;;;;;9.70;6.40;;;19.70;86.80;;;;;;5032063;28;20462;-46
2023/07/23 02:06:52;;;;;;;6.60;6.00;;;;;;;;;;5030657;28;20458;-46
2023/07/23 02:09:19;;;;;;;6.87;6.20;;;;;;;;;;5031651;28;20440;-47
2023/07/23 02:11:46;;;;;;;6.43;5.40;;;;;;;;;;5031934;28;20810;-47
2023/07/23 02:14:14;;;;;;;6.70;5.50;;;;;;;;;;5031856;28;20435;-47
2023/07/23 02:16:41;;;;;;;12.83;6.80;;;19.60;88.10;;;;;;5030165;28;20481;-45
2023/07/23 02:19:08;;;;;;;6.30;5.70;;;;;;;;;;5029999;28;20462;-46
2023/07/23 02:21:34;;;;;;;8.07;5.97;;;19.50;88.80;;;;;;5030381;28;20436;-46
2023/07/23 02:24:01;;;;;;;5.93;5.33;;;;;;;;;;5031009;28;20531;-45
2023/07/23 02:26:28;;;;;;;7.57;5.80;;;;;;;;;;5030712;28;20810;-45
2023/07/23 02:28:55;;;;;;;6.23;5.47;;;19.50;88.80;;;;;;5029994;28;21046;-45
2023/07/23 02:31:23;;;;;;;6.93;5.80;;;;;;;;;;5030486;28;20511;-45
2023/07/23 02:33:50;;;;;;;10.43;5.97;;;;;;;;;;5031619;28;20435;-45
2023/07/23 02:36:17;;;;;;;9.43;6.10;;;;;;;;;;5031428;28;20451;-46
2023/07/23 02:38:44;;;;;;;6.73;5.70;;;;;;;;;;5029814;28;20480;-46
2023/07/23 02:41:10;;;;;;;15.93;6.60;;;19.40;90.60;;;;;;5030461;28;20466;-45
2023/07/23 02:43:37;;;;;;;6.87;6.10;;;19.40;90.80;;;;;;5030414;28;20443;-45
2023/07/23 02:46:04;;;;;;;6.63;5.93;;;;;;;;;;5033647;28;20880;-45
2023/07/23 02:48:32;;;;;;;7.30;6.60;;;;;;;;;;5033458;28;20433;-45
2023/07/23 02:50:59;;;;;;;7.60;6.50;;;19.30;91.50;;;;;;5031925;28;20410;-45
2023/07/23 02:53:27;;;;;;;11.70;6.87;;;19.30;92.10;;;;;;5030402;28;20488;-45
2023/07/23 02:55:54;;;;;;;7.43;6.63;;;;;;;;;;5030504;28;20499;-46
2023/07/23 02:58:21;;;;;;;8.10;7.03;;;;;;;;;;5031503;28;20960;-46
2023/07/23 03:00:49;;;;;;;8.17;6.80;;;;;;;;;;5031363;28;20442;-46
2023/07/23 03:03:16;;;;;;;9.73;7.17;;;;;;;;;;5030159;28;20432;-45
2023/07/23 03:05:45;;;;;;;9.87;7.70;;;;;;;;;;5031464;28;20797;-46
2023/07/23 03:08:10;;;;;;;8.30;6.60;;;19.10;95.10;;;;;;5029952;28;20851;-46
2023/07/23 03:10:37;;;;;;;8.60;6.97;;;19.10;95.20;;;;;;5030141;28;20440;-45
2023/07/23 03:13:03;;;;;;;9.13;8.17;;;19.00;96.00;;;;;;5031594;28;20212;-45
2023/07/23 03:15:34;;;;;;;12.80;7.63;;;19.00;96.40;;;;;;5031301;28;20537;-45
2023/07/23 03:18:01;;;;;;;8.50;7.37;;;;;;;;;;5031448;28;20504;-45
2023/07/23 03:20:28;;;;;;;10.00;8.43;;;18.90;96.90;;;;;;5029818;28;20924;-46
2023/07/23 03:22:56;;;;;;;8.80;8.00;;;18.90;97.20;;;;;;5029983;28;20550;-47
2023/07/23 03:25:23;;;;;;;8.53;7.30;;;;;;;;;;5031448;28;20434;-45
2023/07/23 03:27:50;;;;;;;8.27;7.30;;;;;;;;;;5031202;28;20465;-45
2023/07/23 03:30:17;;;;;;;10.50;7.57;;;;;;;;;;5034642;28;20412;-45
2023/07/23 03:32:44;;;;;;;11.50;7.20;;;18.80;98.00;;;;;;5035489;28;20447;-46
2023/07/23 03:35:10;;;;;;;10.07;7.53;;;18.80;97.80;;;;;;5033879;28;20772;-45
2023/07/23 03:37:37;;;;;;;7.80;7.10;;;;;;;;;;5033568;28;20827;-45
2023/07/23 03:40:06;;;;;;;7.40;6.30;;;;;;;;;;5033094;28;20440;-45
2023/07/23 03:42:33;;;;;;;8.33;6.80;;;;;;;;;;5035220;28;20446;-44
2023/07/23 03:45:00;;;;;;;7.97;7.17;;;;;;;;;;5033776;28;20536;-45
2023/07/23 03:47:27;;;;;;;12.70;8.30;;;18.80;97.70;;;;;;5034626;28;20958;-45
2023/07/23 03:49:54;;;;;;;9.60;7.27;;;;;;;;;;5033020;28;20457;-46
2023/07/23 03:52:22;;;;;;;9.67;8.00;;;;;;;;;;5034626;28;20445;-45
2023/07/23 03:54:49;;;;;;;7.50;6.80;;;;;;;;;;5034740;28;20432;-45
2023/07/23 03:57:17;;;;;;;8.27;6.97;;;18.80;97.70;;;;;;5034515;28;20492;-45
2023/07/23 03:59:45;;;;;;;11.80;8.07;;;;;;;;;;5034260;28;20417;-45
2023/07/23 04:02:12;;;;;;;10.90;7.77;;;;;;;;;;5034775;28;20477;-45
2023/07/23 04:04:41;;;;;;;8.67;7.70;;;18.90;97.80;;;;;;5036332;28;20450;-46
2023/07/23 04:07:08;;;;;;;8.90;8.00;;;;;;;;;;5034484;28;20459;-46
2023/07/23 04:09:36;;;;;;;9.03;7.40;;;18.90;97.90;;;;;;5033707;28;20431;-45
2023/07/23 04:12:03;;;;;;;8.13;7.33;;;;;;;;;;5032617;28;20461;-45
2023/07/23 04:14:31;;;;;;;8.17;7.37;;;18.90;98.00;;;;;;5033879;28;20441;-45
2023/07/23 04:16:57;;;;;;;8.30;7.50;;;18.90;98.00;;;;;;5032519;28;20489;-44
2023/07/23 04:19:24;;;;;;;8.37;7.57;;;;;;;;;;5033385;28;20878;-45
2023/07/23 04:21:51;;;;;;;9.17;7.20;;;19.00;98.20;;;;;;5032491;28;20454;-46
2023/07/23 04:24:18;;;;;;;8.80;7.40;;;;;;;;;;5032441;28;20805;-46
2023/07/23 04:26:45;;;;;;;13.03;7.23;;;;;;;;;;5032327;28;20822;-46
2023/07/23 04:29:12;;;;;;;9.70;7.77;;;;;;;;;;5033445;28;20457;-46
2023/07/23 04:31:40;;;;;;;10.70;7.73;;;19.10;98.20;;;;;;5033581;28;20438;-46
2023/07/23 04:34:07;;;;;;;9.17;7.50;;;;;;;;;;5033335;28;20439;-46
2023/07/23 04:36:34;;;;;;;7.83;7.13;;;;;;;;;;5032117;28;20991;-45
2023/07/23 04:39:03;;;;;;;7.97;7.17;;;;;;;;;;5031895;28;20880;-46
2023/07/23 04:41:29;;;;;;;8.53;7.73;;;19.10;98.30;;;;;;5033462;28;20534;-45
2023/07/23 04:43:57;;;;;;;8.63;7.83;;;;;;;;;;5033338;28;20435;-47
2023/07/23 04:46:24;;;;;;;8.77;7.60;;;19.10;98.20;;;;;;5033299;28;20458;-44
2023/07/23 04:48:52;;;;;;;10.30;7.07;;;;;;;;;;5032786;28;20457;-45
2023/07/23 04:51:19;;;;;;;7.50;6.63;;;;;;;;;;5033627;28;20490;-46
2023/07/23 04:53:45;;;;;;;9.60;7.10;;;19.20;98.40;;;;;;5033233;28;20442;-45
2023/07/23 04:56:12;;;;;;;8.40;7.10;;;19.20;98.40;;;;;;5033222;28;20421;-44
2023/07/23 04:58:39;;;;;;;11.53;8.53;;;;;;;;;;5032892;28;20488;-45
2023/07/23 05:01:07;;;;;;;9.97;7.70;;;;;;;;;;5033221;28;20439;-46
2023/07/23 05:03:34;;;;;;;8.67;7.87;;;19.30;98.60;;;;;;5033026;28;20421;-46
2023/07/23 05:06:04;;;;;;;8.77;7.87;;;;;;;;;;5032965;28;20936;-45
2023/07/23 05:08:31;;;;;;;9.07;8.17;;;;;;;;;;5032584;28;20450;-46
2023/07/23 05:11:00;;;;;;;9.97;8.00;;;;;;;;;;5032943;28;20451;-46
2023/07/23 05:13:27;;;;;;;7.87;6.87;;;;;;;;;;5033215;28;20493;-45
2023/07/23 05:15:54;;;;;;;8.17;7.37;;;;;;;;;;5032979;28;20448;-46
2023/07/23 05:18:21;;;;;;;11.63;8.20;;;;;;;;;;5033327;28;20461;-46
2023/07/23 05:20:48;;;;;;;8.77;7.90;;;;;;;;;;5035425;28;20444;-47
2023/07/23 05:23:16;;;;;;;12.33;8.70;;;;;;;;;;5035323;28;20444;-45
2023/07/23 05:25:43;;;;;;;10.83;8.70;;;19.60;98.00;;;;;;5032943;28;20409;-45
2023/07/23 05:28:10;;;;;;;9.47;8.20;;;;;;;;;;5032441;28;20433;-46
2023/07/23 05:30:38;;;;;;;11.00;8.93;;;;;;;;;;5032594;28;20439;-45
2023/07/23 05:33:04;;;;;;;8.37;7.57;;;19.70;98.30;;;;;;5031089;28;20432;-45
2023/07/23 05:35:31;;;;;;;9.10;8.20;;;;;;;;;;5032672;28;20438;-45
2023/07/23 05:37:58;;;;;;;8.67;7.77;;;;;;;;;;5030528;28;20491;-45
2023/07/23 05:40:27;;;;;;;9.73;8.20;;;;;;;;;;5032562;28;20438;-45
2023/07/23 05:42:56;;;;;;;10.53;8.50;;;;;;;;;;5032916;28;20439;-45
2023/07/23 05:45:23;;;;;;;9.00;8.07;;;19.90;98.00;;;;;;5032952;28;20470;-46
2023/07/23 05:47:49;;;;;;;9.07;7.10;;;20.00;97.90;;;;;;5033034;28;20462;-45
2023/07/23 05:50:16;;;;;;;9.80;8.33;;;;;;;;;;5032637;28;20423;-45
2023/07/23 05:52:43;;;;;;;9.07;8.10;;;;;;;;;;5032705;28;20458;-44
2023/07/23 05:55:10;;;;;;;8.80;7.90;;;20.10;97.70;;;;;;5032684;28;20439;-46
2023/07/23 05:57:38;;;;;;;9.43;7.30;;;20.20;97.70;;;;;;5031038;28;20500;-46
2023/07/23 06:00:05;;;;;;;9.17;7.57;;;20.20;97.50;;;;;;5033371;28;20763;-46
2023/07/23 06:02:38;;;;;;;7.57;6.80;;;20.20;97.40;;;;;;5032587;28;20514;-45
2023/07/23 06:05:05;;;;;;;11.27;8.00;;;;;;;;;;5032218;28;20410;-45
2023/07/23 06:07:31;;;;;;;7.63;6.90;;;20.40;97.30;;;;;;5032296;28;20454;-46
2023/07/23 06:09:58;;;;;;;12.40;7.53;;;;;;;;;;5031830;28;20409;-45
2023/07/23 06:12:27;;;;;;;9.93;8.30;;;;;;;;;;5032151;28;20439;-45
2023/07/23 06:14:55;;;;;;;9.50;6.73;;;;;;;;;;5032529;28;20480;-46
2023/07/23 06:17:22;;;;;;;8.33;7.30;;;20.80;96.40;;;;;;5032701;28;20493;-46
2023/07/23 06:19:48;;;;;;;7.70;6.40;;;20.90;96.30;;;;;;5031973;28;20442;-46
2023/07/23 06:22:15;;;;;;;7.83;7.13;;;;;;;;;;5030688;28;20426;-46
2023/07/23 06:24:42;;;;;;;8.43;7.17;;;21.30;95.90;;;;;;5032043;28;20441;-46
2023/07/23 06:27:08;;;;;;;8.47;7.67;;;21.40;95.60;;;;;;5032247;28;20866;-46
2023/07/23 06:29:35;;;;;;;7.37;6.60;;;;;;;;;;5032450;28;20440;-46
2023/07/23 06:32:04;;;;;;;7.37;6.67;;;;;;;;;;5033808;28;20443;-45
2023/07/23 06:34:30;;;;;;;9.40;5.73;;;21.80;94.20;;;;;;5034472;28;20436;-45
2023/07/23 06:36:57;;;;;;;10.20;6.60;;;;;;;;;;5033577;28;20502;-45
2023/07/23 06:39:24;;;;;;;7.93;7.13;;;;;;;;;;5033719;28;20433;-46
2023/07/23 06:41:51;;;;;;;7.53;6.07;;;;;;;;;;5030375;28;20507;-46
2023/07/23 06:44:19;;;;;;;6.47;5.50;;;;;;;;;;5030192;28;20463;-46
2023/07/23 06:46:46;;;;;;;7.73;6.33;;;;;;;;;;5031388;28;20414;-47
2023/07/23 06:49:14;;;;;;;7.30;5.57;;;22.10;92.90;;;;;;5031979;28;20409;-47
2023/07/23 06:51:41;;;;;;;5.83;5.23;;;22.10;92.80;;;;;;5034206;28;20438;-45
2023/07/23 06:54:08;;;;;;;6.97;5.63;;;;;;;;;;5032703;28;20430;-46
2023/07/23 06:56:35;;;;;;;6.80;5.43;;;;;;;;;;5031844;28;20438;-46
2023/07/23 06:59:03;;;;;;;7.20;5.40;;;;;;;;;;5029899;28;20537;-46
2023/07/23 07:01:30;;;;;;;7.33;5.40;;;;;;;;;;5031472;28;20408;-47
2023/07/23 07:03:58;;;;;;;5.77;5.00;;;;;;;;;;5033526;28;20435;-46
2023/07/23 07:06:26;;;;;;;6.70;4.60;;;;;;;;;;5035321;28;20412;-45
2023/07/23 07:08:53;;;;;;;6.43;5.70;;;;;;;;;;5034786;28;20459;-45
2023/07/23 07:11:20;;;;;;;5.87;4.70;;;;;;;;;;5035437;28;20433;-46
2023/07/23 07:13:47;;;;;;;6.43;5.17;;;22.90;90.70;;;;;;5035105;28;20981;-46
2023/07/23 07:16:16;;;;;;;7.63;5.23;;;;;;;;;;5035232;28;20416;-46
2023/07/23 07:18:43;;;;;;;7.30;6.00;;;;;;;;;;5035003;28;20487;-46
2023/07/23 07:21:10;;;;;;;7.03;6.20;;;23.10;90.40;;;;;;5035304;28;20853;-46
2023/07/23 07:23:37;;;;;;;7.50;6.03;;;23.00;90.30;;;;;;5033935;28;20458;-45
2023/07/23 07:26:04;;;;;;;9.80;6.73;;;;;;;;;;5035284;28;20434;-46
2023/07/23 07:28:34;;;;;;;7.50;6.00;;;23.10;90.20;;;;;;5034842;28;20460;-45
2023/07/23 07:31:03;;;;;;;6.40;5.80;;;;;;;;;;5035285;28;20445;-47
2023/07/23 07:33:30;;;;;;;6.37;5.80;;;;;;;;;;5035049;28;20447;-46
2023/07/23 07:35:58;;;;;;;8.33;6.23;;;23.20;90.10;;;;;;5035058;28;20439;-46
2023/07/23 07:38:26;;;;;;;13.47;6.40;;;;;;;;;;5034351;28;20491;-46
2023/07/23 07:40:56;;;;;;;7.17;6.23;;;;;;;;;;5034922;28;20458;-47
2023/07/23 07:43:22;;;;;;;6.67;5.80;;;23.40;89.80;;;;;;5034734;28;20844;-45
2023/07/23 07:45:49;;;;;;;6.57;5.87;;;;;;;;;;5034649;28;20436;-46
2023/07/23 07:48:20;;;;;;;7.10;5.90;;;;;;;;;;5034081;28;20457;-46
2023/07/23 07:50:48;;;;;;;7.73;6.13;;;;;;;;;;5033396;28;20631;-44
2023/07/23 07:53:15;;;;;;;8.07;5.90;;;;;;;;;;5035753;28;20928;-45
2023/07/23 07:55:42;;;;;;;8.07;5.40;;;;;;;;;;5036749;28;20502;-46
2023/07/23 07:58:14;;;;;;;5.77;5.20;;;;;;;;;;5034406;28;20489;-47
2023/07/23 08:00:41;;;;;;;6.47;5.53;;;24.10;85.10;;;;;;5034693;28;20485;-46
2023/07/23 08:03:08;;;;;;;6.10;5.50;;;;;;;;;;5034455;28;20469;-46
2023/07/23 08:05:36;;;;;;;6.37;5.30;;;;;;;;;;5034682;28;20441;-46
2023/07/23 08:08:04;;;;;;;6.47;5.10;;;;;;;;;;5034403;28;20453;-46
2023/07/23 08:10:32;;;;;;;6.20;5.50;;;;;;;;;;5034511;28;20444;-46
2023/07/23 08:13:00;;;;;;;6.30;4.80;;;;;;;;;;5034198;28;20423;-46
2023/07/23 08:15:30;;;;;;;6.00;4.87;;;23.70;83.30;;;;;;5032024;28;20569;-46
2023/07/23 08:17:57;;;;;;;6.53;4.70;;;;;;;;;;5033748;28;20974;-46
2023/07/23 08:20:26;;;;;;;6.40;4.90;;;;;;;;;;5033515;28;20407;-46
2023/07/23 08:22:54;;;;;;;5.63;4.93;;;;;;;;;;5032653;28;20468;-46
2023/07/23 08:25:21;;;;;;;6.30;4.67;;;;;;;;;;5034143;28;20813;-46
2023/07/23 08:27:51;;;;;;;5.40;4.57;;;23.70;82.90;;;;;;5033579;28;20434;-46
2023/07/23 08:30:19;;;;;;;6.27;4.77;;;;;;;;;;5033211;28;20540;-46
2023/07/23 08:32:48;;;;;;;6.90;6.10;;;23.80;82.50;;;;;;5033692;28;20445;-46
2023/07/23 08:35:16;;;;;;;5.77;5.17;;;;;;;;;;5033659;28;20434;-46
2023/07/23 08:37:43;;;;;;;6.47;5.23;;;23.80;81.60;;;;;;5033220;28;20488;-46
2023/07/23 08:40:10;;;;;;;7.97;4.80;;;;;;;;;;5033549;28;20438;-45
2023/07/23 08:43:01;;;;;;;5.77;5.20;;;;;;;;;;5033757;28;20447;-46
2023/07/23 08:46:20;;;;;;;6.30;5.07;;;24.10;80.20;;;;;;5033355;28;20427;-45
2023/07/23 08:49:10;;;;;;;5.30;4.80;;;24.00;79.90;;;;;;5023814;28;20462;-46
2023/07/23 08:51:41;;;;;;;8.23;5.90;;;;;;;;;;5033798;28;20783;-45
2023/07/23 08:54:09;;;;;;;6.63;4.70;;;;;;;;;;5033775;28;20522;-46
2023/07/23 08:56:36;;;;;;;6.27;5.40;;;;;;;;;;5033496;28;20469;-46
2023/07/23 08:59:04;;;;;;;7.00;5.07;;;;;;;;;;5032490;28;20480;-47
2023/07/23 09:01:33;;;;;;;5.63;4.70;;;;;;;;;;5033001;28;20556;-46
2023/07/23 09:04:00;;;;;;;6.90;4.63;;;;;;;;;;5033145;28;20442;-46
2023/07/23 09:06:29;;;;;;;9.33;4.63;;;;;;;;;;5033240;28;20708;-46
2023/07/23 09:09:01;;;;;;;6.70;5.13;;;;;;;;;;5033085;28;20455;-46
2023/07/23 09:11:28;;;;;;;5.80;5.07;;;;;;;;;;5034578;28;20440;-46
2023/07/23 09:13:58;;;;;;;5.30;4.80;;;;;;;;;;5033838;28;20417;-46
2023/07/23 09:16:24;;;;;;;4.77;4.10;;;25.00;76.20;;;;;;5033033;28;20441;-46
2023/07/23 09:18:51;;;;;;;6.50;5.40;;;;;;;;;;5032532;28;20497;-48
2023/07/23 09:21:23;;;;;;;6.30;4.67;;;;;;;;;;5031855;28;20447;-45
2023/07/23 09:23:52;;;;;;;5.33;4.30;;;25.30;74.00;;;;;;5033185;28;20439;-47
2023/07/23 09:26:20;;;;;;;6.40;4.20;;;;;;;;;;5032288;28;20943;-46
2023/07/23 09:28:48;;;;;;;6.30;4.80;;;;;;;;;;5032481;28;20861;-46
2023/07/23 09:31:21;;;;;;;4.60;4.20;;;;;;;;;;5033143;28;20431;-46
2023/07/23 09:33:48;;;;;;;4.93;4.43;;;;;;;;;;5032976;28;20454;-46
2023/07/23 09:36:15;;;;;;;5.80;4.60;;;25.50;71.80;;;;;;5032699;28;20431;-47
2023/07/23 09:38:46;;;;;;;7.93;7.23;;;;;;;;;;5032218;28;20487;-48
2023/07/23 09:41:14;;;;;;;8.80;4.93;;;;;;;;;;5032731;28;20427;-47
2023/07/23 09:43:41;;;;;;;5.17;4.13;;;;;;;;;;5032690;28;20439;-46
2023/07/23 09:46:08;;;;;;;5.60;4.80;;;;;;;;;;5032644;28;20446;-46
2023/07/23 09:48:37;;;;;;;7.27;4.70;;;;;;;;;;5032038;28;20583;-47
2023/07/23 09:51:10;;;;;;;4.67;4.07;;;;;;;;;;5031606;28;20545;-48
2023/07/23 09:53:41;;;;;;;5.60;5.00;;;;;;;;;;5032600;28;20873;-48
2023/07/23 09:56:09;;;;;;;8.17;4.90;;;25.50;70.30;;;;;;5032519;28;21006;-47
2023/07/23 09:58:38;;;;;;;4.97;4.30;;;;;;;;;;5031880;28;20862;-47
2023/07/23 10:01:05;;;;;;;4.73;4.27;;;25.60;69.90;;;;;;5032494;28;20435;-46
2023/07/23 10:03:32;;;;;;;6.60;4.70;;;25.50;69.10;;;;;;5030986;28;20470;-46
2023/07/23 10:06:00;;;;;;;8.60;5.20;;;;;;;;;;5032064;28;20435;-47
2023/07/23 10:08:28;;;;;;;5.10;4.60;;;;;;;;;;5031801;28;20452;-46
2023/07/23 10:10:54;;;;;;;5.00;4.50;;;25.70;69.00;;;;;;5031821;28;20439;-47
2023/07/23 10:13:21;;;;;;;6.60;4.70;;;;;;;;;;5032260;28;20912;-46
2023/07/23 10:15:51;;;;;;;5.50;4.60;;;;;;;;;;5031580;28;20976;-46
2023/07/23 10:18:19;;;;;;;7.50;5.30;;;;;;;;;;5030957;28;20555;-45
2023/07/23 10:20:46;;;;;;;4.67;4.27;;;;;;;;;;5031888;28;20431;-45
2023/07/23 10:23:13;;;;;;;5.80;4.87;;;;;;;;;;5031439;28;20447;-48
2023/07/23 10:25:40;;;;;;;5.93;4.40;;;;;;;;;;5031726;28;20438;-46
2023/07/23 10:28:08;;;;;;;5.17;4.67;;;;;;;;;;5031353;28;20452;-46
2023/07/23 10:30:37;;;;;;;5.47;4.33;;;;;;;;;;5032394;28;20439;-45
2023/07/23 10:33:30;;;;;;;6.50;4.53;;;26.30;66.00;;;;;;5031544;28;20956;-47
2023/07/23 10:36:04;;;;;;;7.00;4.00;;;;;;;;;;5031871;28;20527;-46
2023/07/23 10:38:31;;;;;;;5.27;4.20;;;;;;;;;;5034017;28;21024;-46
2023/07/23 10:40:59;;;;;;;6.20;5.50;;;;;;;;;;5035864;28;20427;-46
2023/07/23 10:43:37;;;;;;;9.83;4.80;;;;;;;;;;5035827;28;20925;-47
2023/07/23 10:46:05;;;;;;;4.83;4.13;;;;;;;;;;5035893;28;20449;-47
2023/07/23 10:48:40;;;;;;;7.20;4.30;;;;;;;;;;5035006;28;20488;-46
2023/07/23 10:51:09;;;;;;;5.30;4.50;;;;;;;;;;5035904;28;20531;-49
2023/07/23 10:53:39;;;;;;;9.63;4.50;;;;;;;;;;5035843;28;20435;-48
2023/07/23 10:56:21;;;;;;;5.33;4.83;;;;;;;;;;5035522;28;20491;-45
2023/07/23 10:58:48;;;;;;;5.90;4.63;;;;;;;;;;5035544;28;20485;-48
2023/07/23 11:01:16;;;;;;;4.63;4.23;;;;;;;;;;5035670;28;20439;-47
2023/07/23 11:03:45;;;;;;;10.27;4.80;;;;;;;;;;5035906;28;20517;-45
2023/07/23 11:06:25;;;;;;;5.77;4.20;;;;;;;;;;5035531;28;20941;-45
2023/07/23 11:08:52;;;;;;;5.73;4.50;;;27.50;61.30;;;;;;5034767;28;20993;-46
2023/07/23 11:11:22;;;;;;;5.30;4.80;;;;;;;;;;5034140;28;20446;-45
2023/07/23 11:13:49;;;;;;;10.33;4.07;;;27.50;61.60;;;;;;5034407;28;20452;-46
2023/07/23 11:16:16;;;;;;;7.07;4.67;;;;;;;;;;5035281;28;20907;-47
2023/07/23 11:18:44;;;;;;;10.40;4.40;;;;;;;;;;5034259;28;20988;-46
2023/07/23 11:21:14;;;;;;;5.23;4.70;;;;;;;;;;5035011;28;20440;-46
2023/07/23 11:23:41;;;;;;;5.07;4.57;;;;;;;;;;5035007;28;20494;-46
2023/07/23 11:26:08;;;;;;;5.63;4.40;;;;;;;;;;5035146;28;20800;-46
2023/07/23 11:28:35;;;;;;;5.70;4.80;;;27.60;60.00;;;;;;5034409;28;20838;-46
2023/07/23 11:31:01;;;;;;;5.43;4.30;;;27.70;59.90;;;;;;5034895;28;20459;-46
2023/07/23 11:33:30;;;;;;;5.10;4.33;;;;;;;;;;5034768;28;20433;-46
2023/07/23 11:35:57;;;;;;;5.13;3.97;;;;;;;;;;5034012;28;20499;-46
2023/07/23 11:38:29;;;;;;;8.10;5.03;;;;;;;;;;5034140;28;21009;-47
2023/07/23 11:40:57;;;;;;;5.13;4.63;;;;;;;;;;5034632;28;20431;-46
2023/07/23 11:43:24;;;;;;;5.20;4.60;;;28.00;59.60;;;;;;5034444;28;20466;-45
2023/07/23 11:45:51;;;;;;;7.20;4.87;;;;;;;;;;5034901;28;20432;-47
2023/07/23 11:48:19;;;;;;;5.37;4.20;;;;;;;;;;5034767;28;20500;-47
2023/07/23 11:50:46;;;;;;;5.23;4.40;;;;;;;;;;5033846;28;20434;-47
2023/07/23 11:53:14;;;;;;;4.50;4.10;;;;;;;;;;5033731;28;20434;-46
2023/07/23 11:55:43;;;;;;;12.87;4.47;;;28.30;59.10;;;;;;5033616;28;20436;-46
2023/07/23 11:58:18;;;;;;;5.73;4.53;;;;;;;;;;5033705;28;20469;-46
2023/07/23 12:00:48;;;;;;;4.40;4.00;;;;;;;;;;5034392;28;20521;-47
2023/07/23 12:03:16;;;;;;;4.47;4.07;;;28.50;57.70;;;;;;5034578;28;20982;-48
2023/07/23 12:05:42;;;;;;;5.40;4.10;;;28.60;57.30;;;;;;5034049;28;20435;-47
2023/07/23 12:08:09;;;;;;;5.57;4.10;;;;;;;;;;5033448;28;20465;-48
2023/07/23 12:10:36;;;;;;;6.07;4.20;;;28.80;56.20;;;;;;5034412;28;20503;-47
2023/07/23 12:13:09;;;;;;;5.77;3.90;;;;;;;;;;5034910;28;20431;-46
2023/07/23 12:15:38;;;;;;;4.77;4.20;;;;;;;;;;5034545;28;20473;-46
2023/07/23 12:18:05;;;;;;;5.40;3.83;;;;;;;;;;5033091;28;20529;-49
2023/07/23 12:20:32;;;;;;;6.30;5.70;;;;;;;;;;5033470;28;20483;-47
2023/07/23 12:23:02;;;;;;;4.80;4.17;;;;;;;;;;5034760;28;20493;-48
2023/07/23 12:25:28;;;;;;;4.90;4.40;;;29.10;54.70;;;;;;5034655;28;20465;-47
2023/07/23 12:27:55;;;;;;;5.40;3.73;;;;;;;;;;5036403;28;20777;-46
2023/07/23 12:30:24;;;;;;;4.33;3.87;;;;;;;;;;5035304;28;20478;-46
2023/07/23 12:32:50;;;;;;;7.73;4.10;;;29.30;53.40;;;;;;5038506;28;20442;-47
2023/07/23 12:35:17;;;;;;;5.07;4.23;;;29.30;53.40;;;;;;5036086;28;20457;-47
2023/07/23 12:37:44;;;;;;;5.70;3.33;;;;;;;;;;5034960;28;20521;-46
2023/07/23 12:40:12;;;;;;;7.23;4.00;;;;;;;;;;5034642;28;20487;-47
2023/07/23 12:42:39;;;;;;;4.53;3.33;;;;;;;;;;5034614;28;21022;-46
2023/07/23 12:45:07;;;;;;;4.37;3.80;;;29.40;53.50;;;;;;5034150;28;20449;-48
2023/07/23 12:47:35;;;;;;;3.57;3.27;;;;;;;;;;5033497;28;20471;-45
2023/07/23 12:50:03;;;;;;;4.90;3.97;;;;;;;;;;5033235;28;20439;-48
2023/07/23 12:52:30;;;;;;;5.47;3.60;;;;;;;;;;5033884;28;20431;-46
2023/07/23 12:54:57;;;;;;;4.93;3.63;;;;;;;;;;5033440;28;20447;-46
2023/07/23 12:57:24;;;;;;;5.30;3.77;;;;;;;;;;5032992;28;20453;-47
2023/07/23 12:59:51;;;;;;;5.10;3.33;;;;;;;;;;5032968;28;20486;-45
2023/07/23 13:02:18;;;;;;;8.43;3.70;;;;;;;;;;5032686;28;20435;-46
2023/07/23 13:04:47;;;;;;;6.17;3.90;;;;;;;;;;5034130;28;20444;-46
2023/07/23 13:07:14;;;;;;;4.40;4.00;;;;;;;;;;5033801;28;20466;-46
2023/07/23 13:09:41;;;;;;;3.40;2.77;;;;;;;;;;5032714;28;20435;-47
2023/07/23 13:12:08;;;;;;;6.03;3.60;;;29.70;49.20;;;;;;5033062;28;20448;-47
2023/07/23 13:14:35;;;;;;;5.70;3.70;;;;;;;;;;5032810;28;20550;-49
2023/07/23 13:17:02;;;;;;;3.90;3.20;;;;;;;;;;5032707;28;20526;-46
2023/07/23 13:19:29;;;;;;;6.00;4.47;;;;;;;;;;5032314;28;20471;-48
2023/07/23 13:21:57;;;;;;;5.23;3.63;;;;;;;;;;5033473;28;20455;-47
2023/07/23 13:24:24;;;;;;;4.37;3.50;;;;;;;;;;5032890;28;20443;-47
2023/07/23 13:26:51;;;;;;;4.57;3.83;;;;;;;;;;5031956;28;20427;-47
2023/07/23 13:29:18;;;;;;;6.53;3.70;;;;;;;;;;5032177;28;20435;-46
2023/07/23 13:31:45;;;;;;;5.30;3.50;;;;;;;;;;5032667;28;20795;-46
2023/07/23 13:34:12;;;;;;;6.60;3.37;;;;;;;;;;5032151;28;20432;-48
2023/07/23 13:36:39;;;;;;;4.70;3.80;;;;;;;;;;5032791;28;20442;-46
2023/07/23 13:39:07;;;;;;;12.30;4.57;;;;;;;;;;5031748;28;20987;-47
2023/07/23 13:41:34;;;;;;;6.67;4.47;;;;;;;;;;5032255;28;20440;-46
2023/07/23 13:44:01;;;;;;;5.33;4.83;;;;;;;;;;5032941;28;20436;-46
2023/07/23 13:46:28;;;;;;;8.83;4.50;;;29.40;44.70;;;;;;5032782;28;20438;-47
2023/07/23 13:48:55;;;;;;;6.57;3.80;;;29.50;45.00;;;;;;5031564;28;20455;-47
2023/07/23 13:51:22;;;;;;;6.63;4.70;;;;;;;;;;5032836;28;20431;-47
2023/07/23 13:53:49;;;;;;;5.43;4.47;;;;;;;;;;5032644;28;20436;-46
2023/07/23 13:56:17;;;;;;;5.57;5.00;;;29.70;45.10;;;;;;5032367;28;20753;-46
2023/07/23 13:58:43;;;;;;;4.97;3.50;;;;;;;;;;5032090;28;20467;-47
2023/07/23 14:01:10;;;;;;;5.40;3.30;;;;;;;;;;5032466;28;21023;-46
2023/07/23 14:03:37;;;;;;;5.60;4.03;;;;;;;;;;5031815;28;20447;-46
2023/07/23 14:06:05;;;;;;;4.57;3.93;;;29.30;45.00;;;;;;5032233;28;20444;-47
2023/07/23 14:08:33;;;;;;;5.30;3.87;;;;;;;;;;5031866;28;20491;-46
2023/07/23 14:11:00;;;;;;;5.33;3.47;;;;;;;;;;5032128;28;20474;-44